createdAt,value
2023-01-04T00:04:31.076Z,79.63
2023-01-04T00:09:40.616Z,79.62
2023-01-04T00:14:50.441Z,79.67
2023-01-04T00:20:00.007Z,79.70
2023-01-04T00:25:11.520Z,79.67
2023-01-04T00:30:21.763Z,79.72
2023-01-04T00:35:45.401Z,79.71
2023-01-04T00:40:56.041Z,79.71
2023-01-04T00:46:11.922Z,80.01
2023-01-04T00:51:21.791Z,80.15
2023-01-04T00:56:34.156Z,80.32
2023-01-04T01:01:45.231Z,80.46
2023-01-04T01:06:56.162Z,80.54
2023-01-04T01:12:05.952Z,80.58
2023-01-04T01:17:15.746Z,80.64
2023-01-04T01:22:25.435Z,80.71
2023-01-04T01:27:35.225Z,80.82
2023-01-04T01:32:44.776Z,80.91
2023-01-04T01:37:54.421Z,81.16
2023-01-04T01:43:03.993Z,81.10
2023-01-04T01:48:23.437Z,80.95
2023-01-04T01:53:38.528Z,80.90
2023-01-04T01:58:55.142Z,80.89
2023-01-04T02:04:06.719Z,80.89
2023-01-04T02:09:17.505Z,80.97
2023-01-04T02:14:31.005Z,81.06
2023-01-04T02:20:21.483Z,81.18
2023-01-04T02:26:09.877Z,81.28
2023-01-04T02:31:36.629Z,81.33
2023-01-04T02:36:56.229Z,81.37
2023-01-04T02:42:20.737Z,81.35
2023-01-04T02:47:52.722Z,81.38
2023-01-04T02:53:05.964Z,81.53
2023-01-04T02:58:34.180Z,81.53
2023-01-04T03:04:17.200Z,81.57
2023-01-04T03:09:35.843Z,81.62
2023-01-04T03:14:52.993Z,81.69
2023-01-04T03:20:03.719Z,81.65
2023-01-04T03:25:35.378Z,81.55
2023-01-04T03:31:10.958Z,81.46
2023-01-04T03:36:34.530Z,81.70
2023-01-04T03:42:13.690Z,81.56
2023-01-04T03:47:53.236Z,81.43
2023-01-04T03:53:04.173Z,81.44
2023-01-04T03:58:15.077Z,81.51
2023-01-04T04:03:24.804Z,81.60
2023-01-04T04:08:34.839Z,81.68
2023-01-04T04:13:44.619Z,81.72
2023-01-04T04:18:54.544Z,81.79
2023-01-04T04:24:04.219Z,82.13
2023-01-04T04:29:13.949Z,82.44
2023-01-04T04:34:23.576Z,82.49
2023-01-04T04:39:33.218Z,82.31
2023-01-04T04:44:42.977Z,82.18
2023-01-04T04:49:52.545Z,82.18
2023-01-04T04:55:02.223Z,82.15
2023-01-04T05:00:15.624Z,82.24
2023-01-04T05:05:25.262Z,82.29
2023-01-04T05:10:34.911Z,82.36
2023-01-04T05:15:47.970Z,82.35
2023-01-04T05:20:57.960Z,82.40
2023-01-04T05:26:08.001Z,82.57
2023-01-04T05:31:17.792Z,82.65
2023-01-04T05:36:28.013Z,82.60
2023-01-04T05:41:55.257Z,82.44
2023-01-04T05:47:09.581Z,82.36
2023-01-04T05:52:23.791Z,82.27
2023-01-04T05:57:33.548Z,82.31
2023-01-04T06:02:44.193Z,82.43
2023-01-04T06:07:54.720Z,82.47
2023-01-04T06:13:04.542Z,82.66
2023-01-04T06:18:14.821Z,82.86
2023-01-04T06:23:24.552Z,82.86
2023-01-04T06:28:38.701Z,82.69
2023-01-04T06:33:50.336Z,82.44
2023-01-04T06:39:02.104Z,82.42
2023-01-04T06:44:12.383Z,82.52
2023-01-04T06:49:22.139Z,82.53
2023-01-04T06:54:34.154Z,82.64
2023-01-04T06:59:43.885Z,82.55
2023-01-04T07:04:53.919Z,82.68
2023-01-04T07:10:09.197Z,82.93
2023-01-04T07:15:38.130Z,82.82
2023-01-04T07:20:49.688Z,82.53
2023-01-04T07:26:04.593Z,82.35
2023-01-04T07:31:14.368Z,82.19
2023-01-04T07:36:24.462Z,82.41
2023-01-04T07:41:35.656Z,82.46
2023-01-04T07:46:46.073Z,82.40
2023-01-04T07:51:56.616Z,82.25
2023-01-04T07:57:06.230Z,81.97
2023-01-04T08:02:17.215Z,81.96
2023-01-04T08:07:26.963Z,82.03
2023-01-04T08:12:36.536Z,82.03
2023-01-04T08:17:46.311Z,82.25
2023-01-04T08:22:56.956Z,82.25
2023-01-04T08:28:07.257Z,82.26
2023-01-04T08:33:20.845Z,82.03
2023-01-04T08:38:58.772Z,81.46
2023-01-04T08:44:00.861Z,81.50
2023-01-04T08:49:11.191Z,81.10
2023-01-04T08:54:23.376Z,80.84
2023-01-04T08:59:33.678Z,80.99
2023-01-04T09:04:43.465Z,81.00
2023-01-04T09:09:53.457Z,80.89
2023-01-04T09:15:03.311Z,80.78
2023-01-04T09:20:14.475Z,80.75
2023-01-04T09:25:24.635Z,80.58
2023-01-04T09:30:34.460Z,80.75
2023-01-04T09:35:44.353Z,80.65
2023-01-04T09:41:08.478Z,80.26
2023-01-04T09:46:31.103Z,80.11
2023-01-04T09:51:46.819Z,79.47
2023-01-04T09:57:00.707Z,79.43
2023-01-04T10:02:23.252Z,79.76
2023-01-04T10:07:35.978Z,79.78
2023-01-04T10:13:00.129Z,79.76
2023-01-04T10:24:26.413Z,79.11
2023-01-04T10:29:57.354Z,79.06
2023-01-04T10:35:20.400Z,78.99
2023-01-04T10:40:33.158Z,79.11
2023-01-04T10:45:51.822Z,78.96
2023-01-04T10:51:10.508Z,79.17
2023-01-04T10:56:27.712Z,78.78
2023-01-04T11:01:45.631Z,78.40
2023-01-04T11:07:04.572Z,77.87
2023-01-04T11:12:19.426Z,77.58
2023-01-04T11:17:30.179Z,77.30
2023-01-04T11:22:48.452Z,76.86
2023-01-04T11:28:04.282Z,76.65
2023-01-04T11:33:21.099Z,76.25
2023-01-04T11:38:33.053Z,76.40
2023-01-04T11:43:57.966Z,76.29
2023-01-04T11:49:20.108Z,76.27
2023-01-04T11:54:29.967Z,76.03
2023-01-04T11:59:39.861Z,76.29
2023-01-04T12:04:49.900Z,76.09
2023-01-04T12:10:00.770Z,75.99
2023-01-04T12:15:23.393Z,75.87
2023-01-04T12:20:35.196Z,75.67
2023-01-04T12:25:51.490Z,75.46
2023-01-04T12:31:32.696Z,74.85
